createdAt,value
2023-04-25T00:00:50.549Z,52.07
2023-04-25T00:01:50.507Z,48.55
2023-04-25T00:02:50.579Z,51.35
2023-04-25T00:03:50.854Z,52.99
2023-04-25T00:04:50.747Z,49.90
2023-04-25T00:05:50.561Z,52.86
2023-04-25T00:06:50.458Z,50.04
2023-04-25T00:07:50.447Z,50.93
2023-04-25T00:08:50.438Z,52.38
2023-04-25T00:09:50.467Z,50.98
2023-04-25T00:10:50.452Z,49.98
2023-04-25T00:11:50.440Z,50.30
2023-04-25T00:12:50.427Z,50.04
2023-04-25T00:13:50.641Z,52.80
2023-04-25T00:14:50.423Z,54.30
2023-04-25T00:15:50.451Z,51.45
2023-04-25T00:16:50.396Z,51.67
2023-04-25T00:17:50.411Z,50.07
2023-04-25T00:18:50.402Z,55.06
2023-04-25T00:19:50.371Z,52.20
2023-04-25T00:20:50.444Z,51.22
2023-04-25T00:21:50.368Z,50.06
2023-04-25T00:22:50.380Z,53.47
2023-04-25T00:23:50.665Z,51.47
2023-04-25T00:24:50.411Z,51.13
2023-04-25T00:25:50.441Z,51.16
2023-04-25T00:26:50.407Z,51.27
2023-04-25T00:27:50.429Z,49.87
2023-04-25T00:28:50.438Z,50.79
2023-04-25T00:29:50.471Z,53.33
2023-04-25T00:30:50.499Z,48.87
2023-04-25T00:31:50.507Z,51.93
2023-04-25T00:32:50.476Z,47.99
2023-04-25T00:33:50.731Z,51.11
2023-04-25T00:34:50.518Z,53.32
2023-04-25T00:35:50.524Z,48.73
2023-04-25T00:36:50.533Z,51.61
2023-04-25T00:37:50.541Z,50.05
2023-04-25T00:38:50.529Z,51.52
2023-04-25T00:39:50.542Z,51.21
2023-04-25T00:40:50.568Z,48.62
2023-04-25T00:41:50.598Z,50.54
2023-04-25T00:42:50.560Z,51.39
2023-04-25T00:43:50.778Z,53.06
2023-04-25T00:44:50.587Z,52.21
2023-04-25T00:45:50.604Z,50.03
2023-04-25T00:46:50.679Z,51.01
2023-04-25T00:47:50.647Z,51.14
2023-04-25T00:48:50.651Z,50.35
2023-04-25T00:49:50.629Z,50.02
2023-04-25T00:50:50.644Z,51.14
2023-04-25T00:51:50.684Z,47.89
2023-04-25T00:52:50.684Z,46.82
2023-04-25T00:53:50.949Z,48.18
2023-04-25T00:54:50.663Z,50.12
2023-04-25T00:55:50.681Z,46.89
2023-04-25T00:56:50.698Z,48.40
2023-04-25T00:57:50.731Z,48.64
2023-04-25T00:58:50.707Z,55.11
2023-04-25T00:59:50.753Z,48.33
2023-04-25T01:00:50.766Z,51.33
2023-04-25T01:01:50.738Z,49.03
2023-04-25T01:02:50.933Z,48.59
2023-04-25T01:03:50.963Z,48.64
2023-04-25T01:04:50.777Z,50.62
2023-04-25T01:05:50.769Z,50.01
2023-04-25T01:06:50.779Z,50.64
2023-04-25T01:07:50.802Z,48.63
2023-04-25T01:08:50.782Z,50.57
2023-04-25T01:09:50.852Z,50.74
2023-04-25T01:10:50.812Z,48.74
2023-04-25T01:11:50.824Z,48.18
2023-04-25T01:12:50.850Z,50.50
2023-04-25T01:13:51.043Z,48.44
2023-04-25T01:14:50.831Z,50.40
2023-04-25T01:15:50.845Z,47.98
2023-04-25T01:16:50.882Z,48.66
2023-04-25T01:17:50.918Z,47.79
2023-04-25T01:18:50.856Z,49.73
2023-04-25T01:19:50.927Z,48.67
2023-04-25T01:20:50.895Z,49.13
2023-04-25T01:21:50.906Z,49.38
2023-04-25T01:22:50.892Z,52.19
2023-04-25T01:23:51.120Z,50.21
2023-04-25T01:24:50.922Z,47.04
2023-04-25T01:25:50.945Z,47.84
2023-04-25T01:26:51.039Z,51.26
2023-04-25T01:27:50.980Z,50.12
2023-04-25T01:28:50.941Z,49.54
2023-04-25T01:29:50.952Z,48.43
2023-04-25T01:30:50.987Z,48.65
2023-04-25T01:31:50.970Z,51.33
2023-04-25T01:32:51.046Z,49.65
2023-04-25T01:33:51.205Z,50.33
2023-04-25T01:34:51.010Z,50.98
2023-04-25T01:35:51.032Z,47.58
2023-04-25T01:36:51.049Z,51.78
2023-04-25T01:37:51.035Z,51.38
2023-04-25T01:38:51.038Z,48.84
2023-04-25T01:39:51.038Z,51.66
2023-04-25T01:40:51.068Z,48.97
2023-04-25T01:41:51.077Z,49.85
2023-04-25T01:42:51.061Z,50.42
2023-04-25T01:43:51.313Z,48.71
2023-04-25T01:44:51.101Z,46.67
2023-04-25T01:45:51.159Z,49.10
2023-04-25T01:46:51.116Z,46.99
2023-04-25T01:47:51.166Z,47.42
2023-04-25T01:48:51.111Z,47.58
2023-04-25T01:49:51.121Z,47.69
2023-04-25T01:50:51.197Z,49.25
2023-04-25T01:51:51.155Z,49.27
2023-04-25T01:52:51.140Z,49.17
2023-04-25T01:53:51.380Z,46.35
2023-04-25T01:54:51.159Z,48.96
2023-04-25T01:55:51.178Z,49.58
2023-04-25T01:56:51.173Z,48.63
2023-04-25T01:57:51.180Z,48.75
2023-04-25T01:58:51.186Z,47.10
2023-04-25T01:59:51.202Z,45.66
2023-04-25T02:00:51.188Z,50.75
2023-04-25T02:01:51.291Z,46.92
2023-04-25T02:02:51.336Z,48.19
2023-04-25T02:03:51.470Z,48.02
2023-04-25T02:04:51.418Z,48.61
2023-04-25T02:05:51.272Z,47.90
2023-04-25T02:06:51.245Z,49.21
2023-04-25T02:07:51.256Z,48.50
2023-04-25T02:08:51.269Z,48.83
2023-04-25T02:09:51.292Z,47.60
2023-04-25T02:10:51.299Z,48.29
2023-04-25T02:11:51.296Z,50.44
2023-04-25T02:12:51.299Z,47.97
2023-04-25T02:13:51.550Z,46.39
2023-04-25T02:14:51.350Z,47.05
2023-04-25T02:15:51.454Z,46.26
2023-04-25T02:16:51.463Z,47.15
2023-04-25T02:17:51.369Z,47.03
2023-04-25T02:18:51.360Z,47.69
2023-04-25T02:19:51.372Z,47.62
2023-04-25T02:20:51.359Z,45.93
2023-04-25T02:21:51.397Z,44.54
2023-04-25T02:22:51.384Z,49.45
2023-04-25T02:23:51.556Z,47.52
2023-04-25T02:24:51.421Z,44.99
2023-04-25T02:25:51.443Z,50.38
2023-04-25T02:26:51.415Z,46.29
2023-04-25T02:27:51.426Z,48.63
2023-04-25T02:28:51.464Z,48.46
2023-04-25T02:29:51.486Z,48.84
2023-04-25T02:30:51.470Z,46.14
2023-04-25T02:31:51.490Z,47.89
2023-04-25T02:32:51.504Z,48.48
2023-04-25T02:33:51.766Z,44.92
2023-04-25T02:34:51.504Z,48.18
2023-04-25T02:35:51.501Z,46.69
2023-04-25T02:36:51.501Z,44.16
2023-04-25T02:37:51.512Z,45.79
2023-04-25T02:38:51.531Z,46.86
2023-04-25T02:39:51.547Z,43.18
2023-04-25T02:40:51.553Z,44.38
2023-04-25T02:41:51.539Z,44.60
2023-04-25T02:42:51.546Z,47.66
2023-04-25T02:43:51.777Z,44.43
2023-04-25T02:44:51.585Z,46.63
2023-04-25T02:45:51.583Z,48.38
2023-04-25T02:46:51.659Z,44.85
2023-04-25T02:47:51.619Z,44.09
2023-04-25T02:48:51.619Z,46.33
2023-04-25T02:49:51.619Z,47.47
2023-04-25T02:50:51.644Z,48.42
2023-04-25T02:51:51.712Z,46.38
2023-04-25T02:52:51.688Z,47.17
2023-04-25T02:53:51.858Z,49.08
2023-04-25T02:54:51.670Z,46.62
2023-04-25T02:55:51.683Z,47.41
2023-04-25T02:56:51.699Z,44.77
2023-04-25T02:57:51.724Z,45.03
2023-04-25T02:58:51.742Z,48.01
2023-04-25T02:59:51.740Z,47.51
2023-04-25T03:00:51.775Z,46.55
2023-04-25T03:01:51.764Z,44.42
2023-04-25T03:02:51.842Z,47.65
2023-04-25T03:03:52.030Z,44.50
2023-04-25T03:04:51.851Z,42.53
2023-04-25T03:05:51.765Z,43.08
2023-04-25T03:06:51.842Z,45.93
2023-04-25T03:07:51.810Z,47.29
2023-04-25T03:08:51.800Z,43.16
2023-04-25T03:09:51.825Z,44.30
2023-04-25T03:10:51.859Z,41.24
2023-04-25T03:11:51.834Z,44.00
2023-04-25T03:12:51.861Z,43.56
2023-04-25T03:13:52.211Z,44.54
2023-04-25T03:14:51.884Z,41.23
2023-04-25T03:15:51.866Z,42.83
2023-04-25T03:16:51.901Z,47.35
2023-04-25T03:17:51.907Z,42.30
2023-04-25T03:18:51.914Z,43.08
2023-04-25T03:19:51.945Z,45.76
2023-04-25T03:20:51.941Z,43.33
2023-04-25T03:21:51.928Z,43.13
2023-04-25T03:22:51.913Z,46.03
2023-04-25T03:23:52.097Z,41.62
2023-04-25T03:24:51.974Z,44.54
2023-04-25T03:25:51.960Z,42.77
2023-04-25T03:26:52.351Z,44.40
2023-04-25T03:27:51.980Z,45.17
2023-04-25T03:28:51.972Z,45.91
2023-04-25T03:29:52.016Z,44.35
2023-04-25T03:30:51.981Z,44.36
2023-04-25T03:31:52.019Z,44.22
2023-04-25T03:32:52.058Z,39.76
2023-04-25T03:33:52.163Z,44.67
2023-04-25T03:34:52.369Z,44.00
2023-04-25T03:35:52.066Z,44.29
2023-04-25T03:36:52.047Z,41.07
2023-04-25T03:37:52.042Z,41.73
2023-04-25T03:38:52.077Z,42.63
2023-04-25T03:39:52.358Z,44.21
2023-04-25T03:40:52.203Z,44.67
2023-04-25T03:41:52.082Z,43.68
2023-04-25T03:42:52.105Z,39.92
2023-04-25T03:43:52.366Z,45.15
2023-04-25T03:44:52.125Z,43.99
2023-04-25T03:45:52.191Z,41.08
2023-04-25T03:46:52.124Z,42.57
2023-04-25T03:47:52.223Z,41.59
2023-04-25T03:48:52.272Z,41.55
2023-04-25T03:49:52.182Z,40.89
2023-04-25T03:50:52.214Z,45.62
2023-04-25T03:51:52.200Z,42.39
2023-04-25T03:52:52.213Z,45.69
2023-04-25T03:53:52.427Z,41.86
2023-04-25T03:54:52.229Z,43.20
2023-04-25T03:55:52.238Z,46.44
2023-04-25T03:56:52.271Z,42.71
2023-04-25T03:57:52.279Z,41.10
2023-04-25T03:58:52.307Z,46.42
2023-04-25T03:59:52.322Z,41.39
2023-04-25T04:00:52.345Z,42.21
2023-04-25T04:01:52.311Z,41.04
2023-04-25T04:02:52.429Z,42.33
2023-04-25T04:03:52.728Z,44.13
2023-04-25T04:04:52.599Z,47.05
2023-04-25T04:05:52.432Z,40.88
2023-04-25T04:06:52.390Z,43.28
2023-04-25T04:07:52.426Z,42.34
2023-04-25T04:08:52.436Z,40.82
2023-04-25T04:09:52.463Z,40.24
2023-04-25T04:10:52.469Z,41.63
2023-04-25T04:11:52.476Z,41.03
2023-04-25T04:12:52.509Z,42.05
2023-04-25T04:13:52.849Z,42.72
2023-04-25T04:14:52.537Z,41.32
2023-04-25T04:15:52.571Z,42.18
2023-04-25T04:16:52.605Z,41.98
2023-04-25T04:17:52.597Z,39.50
2023-04-25T04:18:52.598Z,45.90
2023-04-25T04:19:52.601Z,40.81
2023-04-25T04:20:52.621Z,43.48
2023-04-25T04:21:52.633Z,41.23
2023-04-25T04:22:52.649Z,41.97
2023-04-25T04:23:52.721Z,40.25
2023-04-25T04:24:52.692Z,41.59
2023-04-25T04:25:52.720Z,41.18
2023-04-25T04:26:52.735Z,41.29
2023-04-25T04:27:52.731Z,42.65
2023-04-25T04:28:52.759Z,42.25
2023-04-25T04:29:52.784Z,42.10
2023-04-25T04:30:52.763Z,42.09
2023-04-25T04:31:52.949Z,41.35
2023-04-25T04:32:53.052Z,42.21
2023-04-25T04:33:53.235Z,42.34
2023-04-25T04:34:52.885Z,40.19
2023-04-25T04:35:52.886Z,40.47
2023-04-25T04:36:52.914Z,40.22
2023-04-25T04:37:52.924Z,40.24
2023-04-25T04:38:52.946Z,39.52
2023-04-25T04:39:52.965Z,41.20
2023-04-25T04:40:52.992Z,41.22
2023-04-25T04:41:53.023Z,40.61
2023-04-25T04:42:53.045Z,41.09
2023-04-25T04:43:53.141Z,43.03
2023-04-25T04:44:53.069Z,42.76
2023-04-25T04:45:53.096Z,40.59
2023-04-25T04:46:53.190Z,40.15
2023-04-25T04:47:53.217Z,41.29
2023-04-25T04:48:53.129Z,39.36
2023-04-25T04:49:53.155Z,39.24
2023-04-25T04:50:53.168Z,40.71
2023-04-25T04:51:53.194Z,38.58
2023-04-25T04:52:53.208Z,38.08
2023-04-25T04:53:53.415Z,39.83
2023-04-25T04:54:53.258Z,39.59
2023-04-25T04:55:53.272Z,40.08
2023-04-25T04:56:53.288Z,38.10
2023-04-25T04:57:53.354Z,36.52
2023-04-25T04:58:53.323Z,39.00
2023-04-25T04:59:53.349Z,36.60
2023-04-25T05:00:53.389Z,38.37
2023-04-25T05:01:53.389Z,37.19
2023-04-25T05:02:53.474Z,36.90
2023-04-25T05:03:53.908Z,36.72
2023-04-25T05:04:53.495Z,36.02
2023-04-25T05:05:53.447Z,33.62
2023-04-25T05:06:53.467Z,35.21
2023-04-25T05:07:53.502Z,35.37
2023-04-25T05:08:53.498Z,37.49
2023-04-25T05:09:53.522Z,36.53
2023-04-25T05:10:53.568Z,37.43
2023-04-25T05:11:53.547Z,35.96
2023-04-25T05:12:53.567Z,36.60
2023-04-25T05:13:53.821Z,32.70
2023-04-25T05:14:53.624Z,36.37
2023-04-25T05:15:53.601Z,36.11
2023-04-25T05:16:53.736Z,34.00
2023-04-25T05:17:54.006Z,37.39
2023-04-25T05:18:53.656Z,37.49
2023-04-25T05:19:53.703Z,35.01
2023-04-25T05:20:53.690Z,34.80
2023-04-25T05:21:53.692Z,30.62
2023-04-25T05:22:53.734Z,33.87
2023-04-25T05:23:53.934Z,34.15
2023-04-25T05:24:55.819Z,33.45
2023-04-25T05:25:53.881Z,33.08
2023-04-25T05:26:53.805Z,35.45
2023-04-25T05:27:53.813Z,28.83
2023-04-25T05:28:53.841Z,31.90
2023-04-25T05:29:53.858Z,32.61
2023-04-25T05:30:53.855Z,33.62
2023-04-25T05:31:53.880Z,30.69
2023-04-25T05:32:54.435Z,28.41
2023-04-25T05:33:53.980Z,30.80
2023-04-25T05:34:54.005Z,27.48
2023-04-25T05:35:54.375Z,25.34
2023-04-25T05:36:53.960Z,33.11
2023-04-25T05:37:54.409Z,33.61
2023-04-25T05:38:54.962Z,51.23
2023-04-25T05:39:53.983Z,47.81
2023-04-25T05:40:53.983Z,54.36
2023-04-25T05:41:54.049Z,56.82
2023-04-25T05:42:54.404Z,59.51
2023-04-25T05:43:57.060Z,61.46
2023-04-25T05:44:54.236Z,69.43
2023-04-25T05:45:54.174Z,65.33
2023-04-25T05:46:54.153Z,68.31
2023-04-25T05:47:54.434Z,72.68
2023-04-25T05:48:54.131Z,84.31
2023-04-25T05:49:54.168Z,93.23
2023-04-25T05:50:54.420Z,96.76
2023-04-25T05:51:54.139Z,99.84
2023-04-25T05:52:54.100Z,104.25
2023-04-25T05:53:54.183Z,113.67
2023-04-25T05:54:54.094Z,119.31
2023-04-25T05:55:54.117Z,122.49
2023-04-25T05:56:54.141Z,125.28
2023-04-25T05:57:54.068Z,125.46
2023-04-25T05:58:54.076Z,128.34
2023-04-25T05:59:54.072Z,131.36
2023-04-25T06:00:54.062Z,132.82
2023-04-25T06:01:54.138Z,138.97
2023-04-25T06:02:54.158Z,139.56
2023-04-25T06:03:54.418Z,142.92
2023-04-25T06:04:54.237Z,143.09
2023-04-25T06:05:54.503Z,146.90
2023-04-25T06:06:54.911Z,138.87
2023-04-25T06:07:54.017Z,146.67
2023-04-25T06:08:54.007Z,147.95
2023-04-25T06:09:54.026Z,155.92
2023-04-25T06:10:54.026Z,147.24
2023-04-25T06:11:54.001Z,159.99
2023-04-25T06:12:53.979Z,156.72
2023-04-25T06:13:54.090Z,155.56
2023-04-25T06:14:54.000Z,155.10
2023-04-25T06:15:54.025Z,158.48
2023-04-25T06:16:53.933Z,161.32
2023-04-25T06:17:53.975Z,169.42
2023-04-25T06:18:53.932Z,170.19
2023-04-25T06:19:54.016Z,165.04
2023-04-25T06:20:53.921Z,162.05
2023-04-25T06:21:53.954Z,164.64
2023-04-25T06:22:53.934Z,167.50
2023-04-25T06:23:54.177Z,168.48
2023-04-25T06:24:53.910Z,166.83
2023-04-25T06:25:53.960Z,173.69
2023-04-25T06:26:53.931Z,181.33
2023-04-25T06:27:53.968Z,175.65
2023-04-25T06:28:53.979Z,175.30
2023-04-25T06:29:54.017Z,176.57
2023-04-25T06:30:54.050Z,179.01
2023-04-25T06:31:54.107Z,179.19
2023-04-25T06:32:54.190Z,174.85
2023-04-25T06:33:54.101Z,178.68
2023-04-25T06:34:54.107Z,178.24
2023-04-25T06:35:54.128Z,178.48
2023-04-25T06:36:54.137Z,179.22
2023-04-25T06:37:54.388Z,179.26
2023-04-25T06:38:54.182Z,178.91
2023-04-25T06:39:54.244Z,182.99
2023-04-25T06:40:54.911Z,181.76
2023-04-25T06:41:54.933Z,166.99
2023-04-25T06:42:54.918Z,172.55
2023-04-25T06:43:54.282Z,177.55
2023-04-25T06:44:54.289Z,172.66
2023-04-25T06:45:54.298Z,123.91
2023-04-25T06:46:54.328Z,89.60
2023-04-25T06:47:54.366Z,74.41
2023-04-25T06:48:54.377Z,69.37
2023-04-25T06:49:54.431Z,57.05
2023-04-25T06:50:54.468Z,46.37
2023-04-25T06:51:54.517Z,63.45
2023-04-25T06:52:54.576Z,134.16
2023-04-25T06:53:54.633Z,111.49
2023-04-25T06:54:54.714Z,108.52
2023-04-25T06:55:55.391Z,101.18
2023-04-25T06:56:54.812Z,96.74
2023-04-25T06:57:54.982Z,93.86
2023-04-25T06:58:54.914Z,99.91
2023-04-25T06:59:54.963Z,78.83
2023-04-25T07:00:55.132Z,91.35
2023-04-25T07:01:55.066Z,112.20
2023-04-25T07:02:55.525Z,114.57
2023-04-25T07:03:55.287Z,116.51
2023-04-25T07:04:55.319Z,97.23
2023-04-25T07:05:55.281Z,105.68
2023-04-25T07:06:55.268Z,94.46
2023-04-25T07:07:55.309Z,79.76
2023-04-25T07:08:55.350Z,83.15
2023-04-25T07:09:55.366Z,61.19
2023-04-25T07:10:55.383Z,64.46
2023-04-25T07:11:55.435Z,85.03
2023-04-25T07:12:55.901Z,89.34
2023-04-25T07:13:55.499Z,76.48
2023-04-25T07:14:55.561Z,56.01
2023-04-25T07:15:57.306Z,51.82
2023-04-25T07:16:56.432Z,44.02
2023-04-25T07:17:56.002Z,30.97
2023-04-25T07:18:55.793Z,30.79
2023-04-25T07:19:55.824Z,39.69
2023-04-25T07:20:55.870Z,28.03
2023-04-25T07:21:55.907Z,29.52
2023-04-25T07:22:55.935Z,35.79
2023-04-25T07:23:55.958Z,29.03
2023-04-25T07:24:56.016Z,32.64
2023-04-25T07:25:56.066Z,29.11
2023-04-25T07:26:56.089Z,32.20
2023-04-25T07:27:56.135Z,41.03
2023-04-25T07:28:56.264Z,25.11
2023-04-25T07:29:56.311Z,65.47
2023-04-25T07:30:56.293Z,50.48
2023-04-25T07:31:56.429Z,61.09
2023-04-25T07:32:56.480Z,78.84
2023-04-25T07:33:56.451Z,115.30
2023-04-25T07:34:56.525Z,139.61
2023-04-25T07:35:56.918Z,142.25
2023-04-25T07:36:56.629Z,137.12
2023-04-25T07:37:56.638Z,122.31
2023-04-25T07:38:56.965Z,104.55
2023-04-25T07:39:56.672Z,94.00
2023-04-25T07:40:56.963Z,101.16
2023-04-25T07:41:56.804Z,107.20
2023-04-25T07:42:56.869Z,126.51
2023-04-25T07:43:56.880Z,127.96
2023-04-25T07:44:56.947Z,132.61
2023-04-25T07:45:56.997Z,145.80
2023-04-25T07:46:57.131Z,141.61
2023-04-25T07:47:57.095Z,145.33
2023-04-25T07:48:57.432Z,150.70
2023-04-25T07:49:57.169Z,147.51
2023-04-25T07:50:57.317Z,156.10
2023-04-25T07:51:57.213Z,163.52
2023-04-25T07:52:57.265Z,166.95
2023-04-25T07:53:57.475Z,153.38
2023-04-25T07:54:57.316Z,166.37
2023-04-25T07:55:57.315Z,166.09
2023-04-25T07:56:57.481Z,178.45
2023-04-25T07:57:57.403Z,175.97
2023-04-25T07:58:57.481Z,175.85
2023-04-25T07:59:57.404Z,177.25
2023-04-25T08:00:57.400Z,181.06
2023-04-25T08:01:57.395Z,181.21
2023-04-25T08:02:57.500Z,180.16
2023-04-25T08:03:57.677Z,193.65
2023-04-25T08:04:57.679Z,182.74
2023-04-25T08:05:58.176Z,187.70
2023-04-25T08:06:57.452Z,187.43
2023-04-25T08:07:57.431Z,188.06
2023-04-25T08:08:57.424Z,184.83
2023-04-25T08:09:57.467Z,185.80
2023-04-25T08:10:57.434Z,189.43
2023-04-25T08:11:57.428Z,188.06
2023-04-25T08:12:57.406Z,186.32
2023-04-25T08:13:57.420Z,182.27
2023-04-25T08:14:57.469Z,186.78
2023-04-25T08:15:57.929Z,190.26
2023-04-25T08:16:57.453Z,188.92
2023-04-25T08:17:57.482Z,184.70
2023-04-25T08:18:57.506Z,171.75
2023-04-25T08:19:58.447Z,180.17
2023-04-25T08:20:57.453Z,179.16
2023-04-25T08:21:57.465Z,182.76
2023-04-25T08:22:57.488Z,183.85
2023-04-25T08:23:57.460Z,182.11
2023-04-25T08:24:57.486Z,186.29
2023-04-25T08:25:57.531Z,186.78
2023-04-25T08:26:57.510Z,187.56
2023-04-25T08:27:57.526Z,188.59
2023-04-25T08:28:58.002Z,188.71
2023-04-25T08:29:57.594Z,189.36
2023-04-25T08:30:57.591Z,187.49
2023-04-25T08:31:57.607Z,187.74
2023-04-25T08:32:57.722Z,186.67
2023-04-25T08:33:57.642Z,190.20
2023-04-25T08:34:57.673Z,188.05
2023-04-25T08:35:57.812Z,188.83
2023-04-25T08:36:57.755Z,191.72
2023-04-25T08:37:57.951Z,190.39
2023-04-25T08:38:58.055Z,186.72
2023-04-25T08:39:57.801Z,183.86
2023-04-25T08:40:57.916Z,187.54
2023-04-25T08:41:57.874Z,189.17
2023-04-25T08:42:57.905Z,188.12
2023-04-25T08:43:58.531Z,191.60
2023-04-25T08:44:58.042Z,188.64
2023-04-25T08:45:57.969Z,187.82
2023-04-25T08:46:58.042Z,184.45
2023-04-25T08:47:58.114Z,171.52
2023-04-25T08:48:58.348Z,160.61
2023-04-25T08:49:58.056Z,151.94
2023-04-25T08:50:58.442Z,125.83
2023-04-25T08:51:58.197Z,118.02
2023-04-25T08:52:58.145Z,114.07
2023-04-25T08:54:34.198Z,101.36
2023-04-25T08:54:59.181Z,101.77
2023-04-25T08:55:58.174Z,94.00
2023-04-25T08:56:58.119Z,88.68
2023-04-25T08:57:58.174Z,82.21
2023-04-25T08:58:58.438Z,79.69
2023-04-25T08:59:58.206Z,68.44
2023-04-25T09:00:58.387Z,78.40
2023-04-25T09:01:58.310Z,62.88
2023-04-25T09:02:58.395Z,74.60
2023-04-25T09:03:58.430Z,80.96
2023-04-25T09:04:58.408Z,79.17
2023-04-25T09:05:58.358Z,63.68
2023-04-25T09:06:58.433Z,55.40
2023-04-25T09:07:58.483Z,55.29
2023-04-25T09:08:58.756Z,53.65
2023-04-25T09:09:58.559Z,52.59
2023-04-25T09:10:58.536Z,43.60
2023-04-25T09:11:58.577Z,46.00
2023-04-25T09:12:58.576Z,49.15
2023-04-25T09:13:58.615Z,42.96
2023-04-25T09:14:58.633Z,29.57
2023-04-25T09:15:58.746Z,43.74
2023-04-25T09:16:58.806Z,38.49
2023-04-25T09:17:58.758Z,41.11
2023-04-25T09:18:58.756Z,47.74
2023-04-25T09:19:58.759Z,50.93
2023-04-25T09:21:01.776Z,60.42
2023-04-25T09:21:58.780Z,73.98
2023-04-25T09:22:58.750Z,76.12
2023-04-25T09:23:58.734Z,76.92
2023-04-25T09:24:58.727Z,87.59
2023-04-25T09:25:58.745Z,99.30
2023-04-25T09:26:58.722Z,103.94
2023-04-25T09:27:58.698Z,110.22
2023-04-25T09:28:58.727Z,121.85
2023-04-25T09:29:59.454Z,126.48
2023-04-25T09:30:58.716Z,134.31
2023-04-25T09:31:59.017Z,143.08
2023-04-25T09:32:58.785Z,135.55
2023-04-25T09:33:58.760Z,144.67
2023-04-25T09:34:58.697Z,151.78
2023-04-25T09:35:58.737Z,159.77
2023-04-25T09:36:58.965Z,157.76
2023-04-25T09:37:58.671Z,160.30
2023-04-25T09:38:58.666Z,161.59
2023-04-25T09:39:58.647Z,165.77
2023-04-25T09:40:58.674Z,168.81
2023-04-25T09:41:58.700Z,166.36
2023-04-25T09:42:58.610Z,166.51
2023-04-25T09:43:58.754Z,167.88
2023-04-25T09:44:58.648Z,167.28
2023-04-25T09:45:59.123Z,165.75
2023-04-25T09:46:58.966Z,165.01
2023-04-25T09:47:58.616Z,166.60
2023-04-25T09:48:59.016Z,167.18
2023-04-25T09:49:58.568Z,170.40
2023-04-25T09:50:58.563Z,166.85
2023-04-25T09:51:59.037Z,168.85
2023-04-25T09:52:58.567Z,168.57
2023-04-25T09:53:58.536Z,167.27
2023-04-25T09:54:58.571Z,168.89
2023-04-25T09:55:58.522Z,169.42
2023-04-25T09:56:58.980Z,168.76
2023-04-25T09:57:58.507Z,167.99
2023-04-25T09:58:58.501Z,170.75
2023-04-25T09:59:58.501Z,166.77
2023-04-25T10:00:58.553Z,168.61
2023-04-25T10:01:58.481Z,165.76
2023-04-25T10:02:58.648Z,165.97
2023-04-25T10:03:59.726Z,163.93
2023-04-25T10:04:59.008Z,165.54
2023-04-25T10:05:58.458Z,166.69
2023-04-25T10:06:58.471Z,166.23
2023-04-25T10:07:58.435Z,166.61
2023-04-25T10:08:58.423Z,164.49
2023-04-25T10:09:58.431Z,163.40
2023-04-25T10:10:58.434Z,161.98
2023-04-25T10:11:58.552Z,162.14
2023-04-25T10:12:58.409Z,162.41
2023-04-25T10:13:58.396Z,161.88
2023-04-25T10:16:17.166Z,25.00
2023-04-25T10:17:17.146Z,25.00
2023-04-25T10:18:17.094Z,25.00
2023-04-25T10:19:17.360Z,25.00
2023-04-25T10:20:17.114Z,25.00
2023-04-25T10:21:17.079Z,26.73
2023-04-25T10:22:17.339Z,26.22
2023-04-25T10:23:17.091Z,27.53
2023-04-25T10:24:17.071Z,26.18
2023-04-25T10:25:17.097Z,27.35
2023-04-25T10:26:17.058Z,25.55
2023-04-25T10:27:17.316Z,25.65
2023-04-25T10:28:17.061Z,27.31
2023-04-25T10:29:17.040Z,29.35
2023-04-25T10:30:17.468Z,29.38
2023-04-25T10:31:17.175Z,42.34
2023-04-25T10:32:17.044Z,52.43
2023-04-25T10:33:17.036Z,59.53
2023-04-25T10:34:16.994Z,61.43
2023-04-25T10:35:16.988Z,60.82
2023-04-25T10:36:17.007Z,59.86
2023-04-25T10:37:16.983Z,61.78
2023-04-25T10:38:16.964Z,64.38
2023-04-25T10:39:17.310Z,64.52
2023-04-25T10:40:16.941Z,64.57
2023-04-25T10:41:16.947Z,69.11
2023-04-25T10:42:16.932Z,68.00
2023-04-25T10:43:16.937Z,71.01
2023-04-25T10:44:16.939Z,70.68
2023-04-25T10:45:16.941Z,70.45
2023-04-25T10:46:17.009Z,72.25
2023-04-25T10:47:16.880Z,72.31
2023-04-25T10:48:16.883Z,70.58
2023-04-25T10:49:17.321Z,71.39
2023-04-25T10:50:16.900Z,71.37
2023-04-25T10:51:16.881Z,72.05
2023-04-25T10:52:16.967Z,68.17
2023-04-25T10:53:16.850Z,70.69
2023-04-25T10:54:16.866Z,69.04
2023-04-25T10:55:16.830Z,68.96
2023-04-25T10:56:16.840Z,69.98
2023-04-25T10:57:16.842Z,68.30
2023-04-25T10:58:16.822Z,67.82
2023-04-25T10:59:17.854Z,69.25
2023-04-25T11:00:16.963Z,68.20
2023-04-25T11:01:16.864Z,67.22
2023-04-25T11:02:16.933Z,68.20
2023-04-25T11:03:17.023Z,70.34
2023-04-25T11:04:17.079Z,65.46
2023-04-25T11:05:17.683Z,63.96
2023-04-25T11:06:16.903Z,67.47
2023-04-25T11:07:16.964Z,62.25
2023-04-25T11:08:16.918Z,64.28
2023-04-25T11:09:16.915Z,62.43
2023-04-25T11:10:17.331Z,62.66
2023-04-25T11:11:16.885Z,61.30
2023-04-25T11:12:17.327Z,63.89
2023-04-25T11:13:16.901Z,62.65
2023-04-25T11:14:17.328Z,62.47
2023-04-25T11:15:17.304Z,61.62
2023-04-25T11:16:26.718Z,59.98
2023-04-25T11:17:17.957Z,60.17
2023-04-25T11:18:16.959Z,60.22
2023-04-25T11:19:16.940Z,62.45
2023-04-25T11:20:16.933Z,51.87
2023-04-25T11:21:16.940Z,59.42
2023-04-25T11:22:16.907Z,61.63
2023-04-25T11:23:16.869Z,57.00
2023-04-25T11:24:16.869Z,57.85
2023-04-25T11:25:16.868Z,60.05
2023-04-25T11:26:16.872Z,58.70
2023-04-25T11:27:17.317Z,58.06
2023-04-25T11:28:16.843Z,55.99
2023-04-25T11:29:16.846Z,62.64
2023-04-25T11:30:16.838Z,59.11
2023-04-25T11:31:16.835Z,58.56
2023-04-25T11:32:18.087Z,60.98
2023-04-25T11:33:16.945Z,56.44
2023-04-25T11:34:16.911Z,60.98
2023-04-25T11:35:16.926Z,57.73
2023-04-25T11:36:17.837Z,53.36
2023-04-25T11:37:16.972Z,53.43
2023-04-25T11:38:17.006Z,56.17
2023-04-25T11:39:16.996Z,56.12
2023-04-25T11:40:17.047Z,52.62
2023-04-25T11:41:17.034Z,49.50
2023-04-25T11:42:17.076Z,47.33
2023-04-25T11:43:17.109Z,47.44
2023-04-25T11:44:17.106Z,50.46
2023-04-25T11:45:17.110Z,46.25
2023-04-25T11:46:17.206Z,45.02
2023-04-25T11:47:17.171Z,45.80
2023-04-25T11:48:17.256Z,47.03
2023-04-25T11:49:17.208Z,41.59
2023-04-25T11:50:17.215Z,43.46
2023-04-25T11:51:17.217Z,39.24
2023-04-25T11:52:17.263Z,44.59
2023-04-25T11:53:17.242Z,46.58
2023-04-25T11:54:17.262Z,47.08
2023-04-25T11:55:17.349Z,49.03
2023-04-25T11:56:17.333Z,44.99
2023-04-25T11:57:17.357Z,44.82
2023-04-25T11:58:17.271Z,46.43
2023-04-25T11:59:17.305Z,45.28
2023-04-25T12:00:18.901Z,49.83
2023-04-25T12:01:17.336Z,49.27
2023-04-25T12:02:17.380Z,46.12
2023-04-25T12:03:17.402Z,48.32
2023-04-25T12:04:17.540Z,47.09
2023-04-25T12:05:31.293Z,46.55
2023-04-25T12:06:19.313Z,46.71
2023-04-25T12:07:17.296Z,46.64
2023-04-25T12:08:17.420Z,36.68
2023-04-25T12:09:17.282Z,35.25
2023-04-25T12:10:17.366Z,32.75
2023-04-25T12:11:17.321Z,29.40
2023-04-25T12:12:17.463Z,29.88
2023-04-25T12:13:17.247Z,28.06
2023-04-25T12:14:17.267Z,25.00
2023-04-25T12:15:17.322Z,26.50
2023-04-25T12:16:17.260Z,27.61
2023-04-25T12:17:17.221Z,27.65
2023-04-25T12:18:17.250Z,27.83
2023-04-25T12:19:17.221Z,25.25
2023-04-25T12:20:17.202Z,26.05
2023-04-25T12:21:17.201Z,25.86
2023-04-25T12:22:17.178Z,37.92
2023-04-25T12:23:17.164Z,30.85
2023-04-25T12:24:17.188Z,27.23
2023-04-25T12:25:17.180Z,31.65
2023-04-25T12:26:17.145Z,25.44
2023-04-25T12:27:17.138Z,29.39
2023-04-25T12:28:17.267Z,27.36
2023-04-25T12:29:17.221Z,29.85
2023-04-25T12:30:17.117Z,27.60
2023-04-25T12:31:17.338Z,25.81
2023-04-25T12:32:17.114Z,29.86
2023-04-25T12:33:17.235Z,26.32
2023-04-25T12:34:17.128Z,25.30
2023-04-25T12:35:17.119Z,25.44
2023-04-25T12:36:17.120Z,28.21
2023-04-25T12:37:17.087Z,30.63
2023-04-25T12:38:17.085Z,28.33
2023-04-25T12:39:17.062Z,25.66
2023-04-25T12:40:17.090Z,29.40
2023-04-25T12:41:17.052Z,26.97
2023-04-25T12:42:17.121Z,31.75
2023-04-25T12:43:17.389Z,26.41
2023-04-25T12:44:17.052Z,26.48
2023-04-25T12:45:17.040Z,30.97
2023-04-25T12:46:17.061Z,25.00
2023-04-25T12:47:17.047Z,26.65
2023-04-25T12:48:17.031Z,29.77